sensor_id;sensor_type;location;lat;lon;timestamp;pressure;altitude;pressure_sealevel;temperature;humidity
65659;BME280;60181;53.258;6.932;2023-09-08T00:03:34;102044.82;;;22.86;64.73
65659;BME280;60181;53.258;6.932;2023-09-08T00:07:54;102045.23;;;22.85;64.56
65659;BME280;60181;53.258;6.932;2023-09-08T00:12:14;102045.31;;;22.84;64.49
65659;BME280;60181;53.258;6.932;2023-09-08T00:16:34;102045.14;;;22.83;64.39
65659;BME280;60181;53.258;6.932;2023-09-08T00:20:54;102045.83;;;22.83;64.29
65659;BME280;60181;53.258;6.932;2023-09-08T00:25:14;102046.33;;;22.82;64.14
65659;BME280;60181;53.258;6.932;2023-09-08T00:29:34;102046.33;;;22.81;64.14
65659;BME280;60181;53.258;6.932;2023-09-08T00:33:54;102045.73;;;22.80;64.03
65659;BME280;60181;53.258;6.932;2023-09-08T00:38:14;102044.06;;;22.79;64.00
65659;BME280;60181;53.258;6.932;2023-09-08T00:42:34;102041.66;;;22.78;63.87
65659;BME280;60181;53.258;6.932;2023-09-08T00:46:54;102039.23;;;22.77;63.83
65659;BME280;60181;53.258;6.932;2023-09-08T00:51:14;102037.48;;;22.77;64.17
65659;BME280;60181;53.258;6.932;2023-09-08T00:55:34;102036.41;;;22.76;64.29
65659;BME280;60181;53.258;6.932;2023-09-08T00:59:54;102036.41;;;22.76;64.34
65659;BME280;60181;53.258;6.932;2023-09-08T01:04:14;102035.57;;;22.76;64.33
65659;BME280;60181;53.258;6.932;2023-09-08T01:08:34;102034.16;;;22.76;64.23
65659;BME280;60181;53.258;6.932;2023-09-08T01:12:54;102033.08;;;22.76;64.17
65659;BME280;60181;53.258;6.932;2023-09-08T01:17:14;102031.97;;;22.76;64.12
65659;BME280;60181;53.258;6.932;2023-09-08T01:21:56;102030.74;;;22.75;64.19
65659;BME280;60181;53.258;6.932;2023-09-08T01:25:59;102028.64;;;22.74;64.09
65659;BME280;60181;53.258;6.932;2023-09-08T01:30:14;102027.82;;;22.73;64.03
65659;BME280;60181;53.258;6.932;2023-09-08T01:34:34;102027.14;;;22.73;63.98
65659;BME280;60181;53.258;6.932;2023-09-08T01:38:54;102026.48;;;22.72;63.92
65659;BME280;60181;53.258;6.932;2023-09-08T01:43:14;102025.73;;;22.72;63.89
65659;BME280;60181;53.258;6.932;2023-09-08T01:47:34;102023.89;;;22.71;63.86
65659;BME280;60181;53.258;6.932;2023-09-08T01:51:54;102021.72;;;22.70;63.76
65659;BME280;60181;53.258;6.932;2023-09-08T01:56:14;102019.89;;;22.69;63.65
65659;BME280;60181;53.258;6.932;2023-09-08T02:00:34;102018.63;;;22.68;63.62
65659;BME280;60181;53.258;6.932;2023-09-08T02:04:54;102017.16;;;22.67;63.50
65659;BME280;60181;53.258;6.932;2023-09-08T02:09:14;102014.98;;;22.66;63.51
65659;BME280;60181;53.258;6.932;2023-09-08T02:13:34;102011.81;;;22.65;63.46
65659;BME280;60181;53.258;6.932;2023-09-08T02:17:54;102009.81;;;22.64;63.40
65659;BME280;60181;53.258;6.932;2023-09-08T02:22:14;102008.22;;;22.63;63.31
65659;BME280;60181;53.258;6.932;2023-09-08T02:26:34;102006.95;;;22.62;63.27
65659;BME280;60181;53.258;6.932;2023-09-08T02:30:54;102006.14;;;22.62;63.14
65659;BME280;60181;53.258;6.932;2023-09-08T02:35:14;102006.38;;;22.61;63.17
65659;BME280;60181;53.258;6.932;2023-09-08T02:39:34;102006.22;;;22.60;63.10
65659;BME280;60181;53.258;6.932;2023-09-08T02:43:54;102006.48;;;22.59;63.09
65659;BME280;60181;53.258;6.932;2023-09-08T02:48:14;102005.49;;;22.58;63.07
65659;BME280;60181;53.258;6.932;2023-09-08T02:52:34;102005.74;;;22.57;63.05
65659;BME280;60181;53.258;6.932;2023-09-08T02:56:54;102004.49;;;22.56;62.87
65659;BME280;60181;53.258;6.932;2023-09-08T03:01:14;102004.49;;;22.55;62.92
65659;BME280;60181;53.258;6.932;2023-09-08T03:05:34;102001.29;;;22.53;62.84
65659;BME280;60181;53.258;6.932;2023-09-08T03:09:54;101998.24;;;22.53;62.83
65659;BME280;60181;53.258;6.932;2023-09-08T03:14:14;101995.97;;;22.52;62.74
65659;BME280;60181;53.258;6.932;2023-09-08T03:18:34;101994.65;;;22.51;62.70
65659;BME280;60181;53.258;6.932;2023-09-08T03:22:54;101993.64;;;22.51;62.62
65659;BME280;60181;53.258;6.932;2023-09-08T03:27:14;101991.39;;;22.50;62.58
65659;BME280;60181;53.258;6.932;2023-09-08T03:31:34;101988.70;;;22.50;62.52
65659;BME280;60181;53.258;6.932;2023-09-08T03:35:54;101984.64;;;22.49;62.56
65659;BME280;60181;53.258;6.932;2023-09-08T03:40:14;101980.70;;;22.48;62.64
65659;BME280;60181;53.258;6.932;2023-09-08T03:44:34;101977.27;;;22.48;62.46
65659;BME280;60181;53.258;6.932;2023-09-08T03:48:54;101973.86;;;22.47;62.47
65659;BME280;60181;53.258;6.932;2023-09-08T03:53:14;101970.11;;;22.47;62.43
65659;BME280;60181;53.258;6.932;2023-09-08T03:57:34;101967.61;;;22.47;62.24
65659;BME280;60181;53.258;6.932;2023-09-08T04:01:54;101965.92;;;22.47;62.24
65659;BME280;60181;53.258;6.932;2023-09-08T04:06:14;101963.86;;;22.46;62.32
65659;BME280;60181;53.258;6.932;2023-09-08T04:10:34;101963.36;;;22.45;62.60
65659;BME280;60181;53.258;6.932;2023-09-08T04:14:54;101964.18;;;22.44;62.29
65659;BME280;60181;53.258;6.932;2023-09-08T04:19:14;101964.68;;;22.43;62.55
65659;BME280;60181;53.258;6.932;2023-09-08T04:23:34;101964.94;;;22.43;62.22
65659;BME280;60181;53.258;6.932;2023-09-08T04:27:54;101965.27;;;22.43;62.05
65659;BME280;60181;53.258;6.932;2023-09-08T04:32:14;101965.79;;;22.42;62.01
65659;BME280;60181;53.258;6.932;2023-09-08T04:36:34;101966.61;;;22.42;61.97
65659;BME280;60181;53.258;6.932;2023-09-08T04:40:54;101965.52;;;22.41;61.83
65659;BME280;60181;53.258;6.932;2023-09-08T04:45:14;101964.59;;;22.40;61.96
65659;BME280;60181;53.258;6.932;2023-09-08T04:49:34;101962.76;;;22.39;61.78
65659;BME280;60181;53.258;6.932;2023-09-08T04:53:54;101961.94;;;22.39;61.69
65659;BME280;60181;53.258;6.932;2023-09-08T04:58:14;101960.92;;;22.38;61.43
65659;BME280;60181;53.258;6.932;2023-09-08T05:02:34;101960.10;;;22.38;61.58
65659;BME280;60181;53.258;6.932;2023-09-08T05:06:54;101960.33;;;22.38;61.55
65659;BME280;60181;53.258;6.932;2023-09-08T05:11:14;101961.50;;;22.38;61.56
65659;BME280;60181;53.258;6.932;2023-09-08T05:15:34;101961.44;;;22.38;61.54
65659;BME280;60181;53.258;6.932;2023-09-08T05:19:54;101960.60;;;22.38;61.55
65659;BME280;60181;53.258;6.932;2023-09-08T05:24:14;101959.66;;;22.38;61.50
65659;BME280;60181;53.258;6.932;2023-09-08T05:28:34;101960.66;;;22.38;61.79
65659;BME280;60181;53.258;6.932;2023-09-08T05:32:54;101960.77;;;22.38;61.75
65659;BME280;60181;53.258;6.932;2023-09-08T05:37:14;101961.60;;;22.37;61.81
65659;BME280;60181;53.258;6.932;2023-09-08T05:41:34;101961.92;;;22.36;61.81
65659;BME280;60181;53.258;6.932;2023-09-08T05:45:54;101961.25;;;22.35;61.50
65659;BME280;60181;53.258;6.932;2023-09-08T05:50:14;101960.17;;;22.34;61.22
65659;BME280;60181;53.258;6.932;2023-09-08T05:54:33;101959.34;;;22.33;60.87
65659;BME280;60181;53.258;6.932;2023-09-08T05:58:53;101960.02;;;22.32;60.84
65659;BME280;60181;53.258;6.932;2023-09-08T06:03:13;101960.53;;;22.31;60.56
65659;BME280;60181;53.258;6.932;2023-09-08T06:07:33;101961.18;;;22.31;60.63
65659;BME280;60181;53.258;6.932;2023-09-08T06:11:53;101960.44;;;22.30;60.55
65659;BME280;60181;53.258;6.932;2023-09-08T06:16:13;101960.18;;;22.29;60.59
65659;BME280;60181;53.258;6.932;2023-09-08T06:20:33;101960.55;;;22.28;60.63
65659;BME280;60181;53.258;6.932;2023-09-08T06:24:53;101960.96;;;22.27;60.56
65659;BME280;60181;53.258;6.932;2023-09-08T06:29:13;101959.36;;;22.26;60.41
65659;BME280;60181;53.258;6.932;2023-09-08T06:33:33;101958.20;;;22.25;59.69
65659;BME280;60181;53.258;6.932;2023-09-08T06:37:53;101957.28;;;22.22;59.94
65659;BME280;60181;53.258;6.932;2023-09-08T06:42:13;101956.37;;;22.18;60.00
65659;BME280;60181;53.258;6.932;2023-09-08T06:46:33;101954.30;;;22.14;60.09
65659;BME280;60181;53.258;6.932;2023-09-08T06:50:53;101953.45;;;22.11;60.22
65659;BME280;60181;53.258;6.932;2023-09-08T06:55:13;101952.98;;;22.08;60.44
65659;BME280;60181;53.258;6.932;2023-09-08T06:59:33;101952.47;;;22.05;60.72
65659;BME280;60181;53.258;6.932;2023-09-08T07:03:53;101952.81;;;22.03;60.89
65659;BME280;60181;53.258;6.932;2023-09-08T07:08:13;101953.00;;;22.01;61.06
65659;BME280;60181;53.258;6.932;2023-09-08T07:12:33;101952.14;;;22.00;61.29
65659;BME280;60181;53.258;6.932;2023-09-08T07:16:53;101951.40;;;21.98;61.44
65659;BME280;60181;53.258;6.932;2023-09-08T07:21:13;101950.73;;;21.97;61.77
65659;BME280;60181;53.258;6.932;2023-09-08T07:25:33;101951.08;;;21.97;61.92
65659;BME280;60181;53.258;6.932;2023-09-08T07:29:53;101952.42;;;21.97;62.09
65659;BME280;60181;53.258;6.932;2023-09-08T07:34:13;101953.91;;;21.97;62.38
65659;BME280;60181;53.258;6.932;2023-09-08T07:38:34;101954.83;;;21.98;62.63
65659;BME280;60181;53.258;6.932;2023-09-08T07:42:53;101955.31;;;21.98;62.86
65659;BME280;60181;53.258;6.932;2023-09-08T07:47:13;101956.81;;;22.00;63.00
65659;BME280;60181;53.258;6.932;2023-09-08T07:51:33;101958.65;;;22.03;62.89
65659;BME280;60181;53.258;6.932;2023-09-08T07:55:53;101958.83;;;22.08;62.44
65659;BME280;60181;53.258;6.932;2023-09-08T08:00:14;101959.04;;;22.15;62.38
65659;BME280;60181;53.258;6.932;2023-09-08T08:04:33;101960.05;;;22.24;62.25
65659;BME280;60181;53.258;6.932;2023-09-08T08:08:53;101958.92;;;22.32;62.71
65659;BME280;60181;53.258;6.932;2023-09-08T08:13:13;101956.89;;;22.41;63.12
65659;BME280;60181;53.258;6.932;2023-09-08T08:17:33;101955.58;;;22.49;63.07
65659;BME280;60181;53.258;6.932;2023-09-08T08:21:53;101955.32;;;22.57;62.98
65659;BME280;60181;53.258;6.932;2023-09-08T08:26:13;101954.63;;;22.63;62.86
65659;BME280;60181;53.258;6.932;2023-09-08T08:30:33;101955.08;;;22.70;62.78
65659;BME280;60181;53.258;6.932;2023-09-08T08:34:53;101956.82;;;22.75;62.71
65659;BME280;60181;53.258;6.932;2023-09-08T08:39:13;101958.98;;;22.80;62.70
65659;BME280;60181;53.258;6.932;2023-09-08T08:43:33;101960.44;;;22.84;62.67
65659;BME280;60181;53.258;6.932;2023-09-08T08:47:53;101962.27;;;22.88;62.65
65659;BME280;60181;53.258;6.932;2023-09-08T08:52:14;101962.42;;;22.92;62.70
65659;BME280;60181;53.258;6.932;2023-09-08T08:56:35;101962.59;;;22.95;62.73
65659;BME280;60181;53.258;6.932;2023-09-08T09:00:53;101963.14;;;22.98;62.76
65659;BME280;60181;53.258;6.932;2023-09-08T09:05:13;101963.11;;;23.00;62.81
65659;BME280;60181;53.258;6.932;2023-09-08T09:09:33;101963.05;;;23.02;62.80
65659;BME280;60181;53.258;6.932;2023-09-08T09:13:53;101963.45;;;23.05;62.84
65659;BME280;60181;53.258;6.932;2023-09-08T09:18:13;101963.00;;;23.07;62.83
65659;BME280;60181;53.258;6.932;2023-09-08T09:22:36;101962.92;;;23.08;62.84
65659;BME280;60181;53.258;6.932;2023-09-08T09:26:53;101962.56;;;23.10;62.86
65659;BME280;60181;53.258;6.932;2023-09-08T09:31:13;101963.14;;;23.11;62.87
65659;BME280;60181;53.258;6.932;2023-09-08T09:35:46;101962.80;;;23.12;62.92
65659;BME280;60181;53.258;6.932;2023-09-08T09:39:53;101962.22;;;23.13;62.93
65659;BME280;60181;53.258;6.932;2023-09-08T09:44:14;101961.80;;;23.14;62.94
65659;BME280;60181;53.258;6.932;2023-09-08T09:48:33;101961.03;;;23.15;62.98
65659;BME280;60181;53.258;6.932;2023-09-08T09:52:56;101960.04;;;23.15;62.96
65659;BME280;60181;53.258;6.932;2023-09-08T09:57:13;101957.19;;;23.16;62.97
65659;BME280;60181;53.258;6.932;2023-09-08T10:01:33;101954.60;;;23.16;63.00
65659;BME280;60181;53.258;6.932;2023-09-08T10:05:53;101950.93;;;23.17;63.01
65659;BME280;60181;53.258;6.932;2023-09-08T10:10:14;101948.16;;;23.17;63.06
65659;BME280;60181;53.258;6.932;2023-09-08T10:14:35;101945.21;;;23.18;63.06
65659;BME280;60181;53.258;6.932;2023-09-08T10:18:53;101941.14;;;23.18;63.08
65659;BME280;60181;53.258;6.932;2023-09-08T10:23:19;101936.53;;;23.18;63.23
65659;BME280;60181;53.258;6.932;2023-09-08T10:27:33;101931.78;;;23.18;63.20
65659;BME280;60181;53.258;6.932;2023-09-08T10:31:54;101928.34;;;23.18;63.25
65659;BME280;60181;53.258;6.932;2023-09-08T10:36:13;101925.84;;;23.18;63.33
65659;BME280;60181;53.258;6.932;2023-09-08T10:40:33;101923.57;;;23.19;63.30
65659;BME280;60181;53.258;6.932;2023-09-08T10:44:57;101921.64;;;23.19;63.35
65659;BME280;60181;53.258;6.932;2023-09-08T10:49:13;101919.06;;;23.19;63.45
65659;BME280;60181;53.258;6.932;2023-09-08T10:53:33;101919.23;;;23.19;63.54
65659;BME280;60181;53.258;6.932;2023-09-08T10:57:54;101919.47;;;23.19;63.36
65659;BME280;60181;53.258;6.932;2023-09-08T11:06:33;101921.41;;;23.24;62.68
65659;BME280;60181;53.258;6.932;2023-09-08T11:10:53;101921.56;;;23.27;62.30
65659;BME280;60181;53.258;6.932;2023-09-08T11:15:13;101921.45;;;23.30;62.58
65659;BME280;60181;53.258;6.932;2023-09-08T11:19:42;101919.41;;;23.34;62.70
65659;BME280;60181;53.258;6.932;2023-09-08T11:23:53;101916.63;;;23.37;62.26
65659;BME280;60181;53.258;6.932;2023-09-08T11:28:13;101914.00;;;23.40;61.93
65659;BME280;60181;53.258;6.932;2023-09-08T11:32:33;101912.49;;;23.43;61.91
65659;BME280;60181;53.258;6.932;2023-09-08T11:36:53;101910.14;;;23.45;61.96
65659;BME280;60181;53.258;6.932;2023-09-08T11:41:13;101907.42;;;23.47;61.80
65659;BME280;60181;53.258;6.932;2023-09-08T11:45:36;101906.59;;;23.49;61.48
65659;BME280;60181;53.258;6.932;2023-09-08T11:49:53;101904.80;;;23.51;61.58
65659;BME280;60181;53.258;6.932;2023-09-08T11:54:13;101903.97;;;23.53;61.59
65659;BME280;60181;53.258;6.932;2023-09-08T11:58:33;101902.28;;;23.54;61.63
65659;BME280;60181;53.258;6.932;2023-09-08T12:02:53;101900.76;;;23.54;61.60
65659;BME280;60181;53.258;6.932;2023-09-08T12:07:13;101900.02;;;23.55;61.50
65659;BME280;60181;53.258;6.932;2023-09-08T12:11:33;101898.75;;;23.55;61.55
65659;BME280;60181;53.258;6.932;2023-09-08T12:15:53;101898.26;;;23.56;61.47
65659;BME280;60181;53.258;6.932;2023-09-08T12:20:14;101897.33;;;23.56;61.55
65659;BME280;60181;53.258;6.932;2023-09-08T12:28:53;101895.29;;;23.58;61.09
65659;BME280;60181;53.258;6.932;2023-09-08T12:33:13;101893.11;;;23.60;60.33
65659;BME280;60181;53.258;6.932;2023-09-08T12:37:33;101891.42;;;23.63;59.75
65659;BME280;60181;53.258;6.932;2023-09-08T12:41:53;101889.45;;;23.66;60.03
65659;BME280;60181;53.258;6.932;2023-09-08T12:46:13;101887.08;;;23.69;59.72
65659;BME280;60181;53.258;6.932;2023-09-08T12:50:33;101883.80;;;23.72;59.59
65659;BME280;60181;53.258;6.932;2023-09-08T12:54:53;101879.58;;;23.75;59.35
65659;BME280;60181;53.258;6.932;2023-09-08T12:59:13;101876.39;;;23.78;59.75
65659;BME280;60181;53.258;6.932;2023-09-08T13:03:33;101873.41;;;23.81;59.81
65659;BME280;60181;53.258;6.932;2023-09-08T13:07:53;101870.12;;;23.84;59.50
65659;BME280;60181;53.258;6.932;2023-09-08T13:12:13;101867.85;;;23.86;60.24
65659;BME280;60181;53.258;6.932;2023-09-08T13:16:33;101864.65;;;23.88;60.20
65659;BME280;60181;53.258;6.932;2023-09-08T13:20:53;101861.29;;;23.91;60.35
65659;BME280;60181;53.258;6.932;2023-09-08T13:25:13;101858.76;;;23.93;60.34
65659;BME280;60181;53.258;6.932;2023-09-08T13:29:33;101856.70;;;23.95;60.73
65659;BME280;60181;53.258;6.932;2023-09-08T13:33:53;101854.39;;;23.96;60.30
65659;BME280;60181;53.258;6.932;2023-09-08T13:38:13;101851.11;;;23.98;60.36
65659;BME280;60181;53.258;6.932;2023-09-08T13:42:33;101846.58;;;23.99;60.27
65659;BME280;60181;53.258;6.932;2023-09-08T13:46:53;101842.89;;;24.00;59.81
65659;BME280;60181;53.258;6.932;2023-09-08T13:51:13;101840.09;;;24.01;59.05
65659;BME280;60181;53.258;6.932;2023-09-08T13:55:33;101837.25;;;24.03;58.81
65659;BME280;60181;53.258;6.932;2023-09-08T13:59:53;101834.63;;;24.04;58.96
65659;BME280;60181;53.258;6.932;2023-09-08T14:04:13;101832.86;;;24.06;58.71
65659;BME280;60181;53.258;6.932;2023-09-08T14:08:33;101831.67;;;24.07;59.14
65659;BME280;60181;53.258;6.932;2023-09-08T14:12:53;101830.83;;;24.08;59.25
65659;BME280;60181;53.258;6.932;2023-09-08T14:17:13;101830.80;;;24.09;59.25
65659;BME280;60181;53.258;6.932;2023-09-08T14:21:33;101830.56;;;24.10;59.62
65659;BME280;60181;53.258;6.932;2023-09-08T14:25:53;101829.43;;;24.12;58.87
65659;BME280;60181;53.258;6.932;2023-09-08T14:30:13;101828.66;;;24.14;58.89
65659;BME280;60181;53.258;6.932;2023-09-08T14:34:33;101827.06;;;24.15;58.43
65659;BME280;60181;53.258;6.932;2023-09-08T14:38:53;101825.12;;;24.16;58.46
65659;BME280;60181;53.258;6.932;2023-09-08T14:43:13;101823.35;;;24.17;58.35
65659;BME280;60181;53.258;6.932;2023-09-08T14:47:33;101821.66;;;24.18;58.24
65659;BME280;60181;53.258;6.932;2023-09-08T14:51:53;101819.64;;;24.19;58.26
65659;BME280;60181;53.258;6.932;2023-09-08T14:56:13;101817.13;;;24.21;57.90
65659;BME280;60181;53.258;6.932;2023-09-08T15:00:33;101814.57;;;24.22;57.53
65659;BME280;60181;53.258;6.932;2023-09-08T15:04:53;101811.30;;;24.22;57.61
65659;BME280;60181;53.258;6.932;2023-09-08T15:09:13;101809.45;;;24.23;58.10
65659;BME280;60181;53.258;6.932;2023-09-08T15:13:33;101806.62;;;24.24;58.33
65659;BME280;60181;53.258;6.932;2023-09-08T15:17:53;101804.42;;;24.24;58.57
65659;BME280;60181;53.258;6.932;2023-09-08T15:22:13;101802.31;;;24.25;58.85
65659;BME280;60181;53.258;6.932;2023-09-08T15:26:33;101799.74;;;24.25;58.85
65659;BME280;60181;53.258;6.932;2023-09-08T15:30:53;101796.88;;;24.25;58.68
65659;BME280;60181;53.258;6.932;2023-09-08T15:35:13;101794.78;;;24.26;58.59
65659;BME280;60181;53.258;6.932;2023-09-08T15:39:33;101792.99;;;24.27;58.70
65659;BME280;60181;53.258;6.932;2023-09-08T15:43:53;101791.16;;;24.28;58.83
65659;BME280;60181;53.258;6.932;2023-09-08T15:48:13;101790.36;;;24.29;59.17
65659;BME280;60181;53.258;6.932;2023-09-08T15:52:33;101789.11;;;24.30;59.42
65659;BME280;60181;53.258;6.932;2023-09-08T15:56:53;101788.86;;;24.31;59.53
65659;BME280;60181;53.258;6.932;2023-09-08T16:01:13;101788.67;;;24.31;59.66
65659;BME280;60181;53.258;6.932;2023-09-08T16:05:33;101788.92;;;24.32;59.56
65659;BME280;60181;53.258;6.932;2023-09-08T16:09:53;101789.06;;;24.33;59.62
65659;BME280;60181;53.258;6.932;2023-09-08T16:14:13;101789.07;;;24.33;59.78
65659;BME280;60181;53.258;6.932;2023-09-08T16:18:33;101788.37;;;24.34;59.79
65659;BME280;60181;53.258;6.932;2023-09-08T16:22:53;101787.98;;;24.34;59.98
65659;BME280;60181;53.258;6.932;2023-09-08T16:27:13;101787.89;;;24.34;60.20
65659;BME280;60181;53.258;6.932;2023-09-08T16:31:33;101787.70;;;24.35;60.41
65659;BME280;60181;53.258;6.932;2023-09-08T16:35:53;101787.63;;;24.35;60.51
65659;BME280;60181;53.258;6.932;2023-09-08T16:40:13;101788.21;;;24.35;60.76
65659;BME280;60181;53.258;6.932;2023-09-08T16:44:33;101788.03;;;24.35;61.03
65659;BME280;60181;53.258;6.932;2023-09-08T16:48:53;101788.72;;;24.34;61.33
65659;BME280;60181;53.258;6.932;2023-09-08T16:53:13;101789.58;;;24.33;61.61
65659;BME280;60181;53.258;6.932;2023-09-08T16:57:33;101790.61;;;24.32;61.93
65659;BME280;60181;53.258;6.932;2023-09-08T17:01:53;101790.79;;;24.31;62.40
65659;BME280;60181;53.258;6.932;2023-09-08T17:06:13;101789.62;;;24.29;62.47
65659;BME280;60181;53.258;6.932;2023-09-08T17:10:33;101789.06;;;24.28;62.83
65659;BME280;60181;53.258;6.932;2023-09-08T17:14:53;101788.90;;;24.27;63.16
65659;BME280;60181;53.258;6.932;2023-09-08T17:19:13;101788.00;;;24.25;63.43
65659;BME280;60181;53.258;6.932;2023-09-08T17:23:33;101787.44;;;24.24;63.72
65659;BME280;60181;53.258;6.932;2023-09-08T17:27:53;101787.55;;;24.23;63.96
65659;BME280;60181;53.258;6.932;2023-09-08T17:32:13;101788.62;;;24.22;64.05
65659;BME280;60181;53.258;6.932;2023-09-08T17:36:33;101789.65;;;24.20;64.31
65659;BME280;60181;53.258;6.932;2023-09-08T17:40:53;101790.34;;;24.19;64.18
65659;BME280;60181;53.258;6.932;2023-09-08T17:45:13;101789.84;;;24.18;64.48
65659;BME280;60181;53.258;6.932;2023-09-08T17:49:33;101789.53;;;24.17;64.51
65659;BME280;60181;53.258;6.932;2023-09-08T17:53:53;101789.98;;;24.16;64.49
65659;BME280;60181;53.258;6.932;2023-09-08T17:58:13;101790.73;;;24.15;64.69
65659;BME280;60181;53.258;6.932;2023-09-08T18:02:33;101791.00;;;24.14;64.67
65659;BME280;60181;53.258;6.932;2023-09-08T18:06:53;101792.02;;;24.13;64.66
65659;BME280;60181;53.258;6.932;2023-09-08T18:11:13;101793.13;;;24.12;64.73
65659;BME280;60181;53.258;6.932;2023-09-08T18:15:33;101794.64;;;24.11;64.85
65659;BME280;60181;53.258;6.932;2023-09-08T18:19:53;101795.48;;;24.09;65.23
65659;BME280;60181;53.258;6.932;2023-09-08T18:24:13;101796.26;;;24.08;65.22
65659;BME280;60181;53.258;6.932;2023-09-08T18:28:33;101797.00;;;24.08;65.26
65659;BME280;60181;53.258;6.932;2023-09-08T18:32:52;101797.16;;;24.08;65.37
65659;BME280;60181;53.258;6.932;2023-09-08T18:37:12;101797.16;;;24.08;65.42
65659;BME280;60181;53.258;6.932;2023-09-08T18:41:33;101797.83;;;24.08;65.47
65659;BME280;60181;53.258;6.932;2023-09-08T18:45:53;101799.27;;;24.08;65.55
65659;BME280;60181;53.258;6.932;2023-09-08T18:50:12;101800.27;;;24.08;65.62
65659;BME280;60181;53.258;6.932;2023-09-08T18:54:32;101801.70;;;24.08;65.65
65659;BME280;60181;53.258;6.932;2023-09-08T18:58:52;101803.81;;;24.07;65.77
65659;BME280;60181;53.258;6.932;2023-09-08T19:03:12;101806.32;;;24.07;65.77
65659;BME280;60181;53.258;6.932;2023-09-08T19:07:32;101808.06;;;24.07;65.80
65659;BME280;60181;53.258;6.932;2023-09-08T19:11:52;101810.57;;;24.07;65.84
65659;BME280;60181;53.258;6.932;2023-09-08T19:16:12;101812.84;;;24.07;65.89
65659;BME280;60181;53.258;6.932;2023-09-08T19:20:32;101814.76;;;24.07;65.98
65659;BME280;60181;53.258;6.932;2023-09-08T19:24:52;101816.63;;;24.06;66.02
65659;BME280;60181;53.258;6.932;2023-09-08T19:29:12;101818.47;;;24.06;66.04
65659;BME280;60181;53.258;6.932;2023-09-08T19:33:32;101820.15;;;24.06;66.08
65659;BME280;60181;53.258;6.932;2023-09-08T19:37:53;101820.04;;;24.06;66.05
65659;BME280;60181;53.258;6.932;2023-09-08T19:42:12;101819.30;;;24.06;66.11
65659;BME280;60181;53.258;6.932;2023-09-08T19:46:35;101819.06;;;24.05;66.10
65659;BME280;60181;53.258;6.932;2023-09-08T19:50:53;101819.32;;;24.05;66.16
65659;BME280;60181;53.258;6.932;2023-09-08T19:55:13;101818.88;;;24.05;66.15
65659;BME280;60181;53.258;6.932;2023-09-08T19:59:32;101817.39;;;24.04;66.21
65659;BME280;60181;53.258;6.932;2023-09-08T20:03:52;101816.99;;;24.04;66.21
65659;BME280;60181;53.258;6.932;2023-09-08T20:08:12;101816.55;;;24.04;66.20
65659;BME280;60181;53.258;6.932;2023-09-08T20:12:32;101816.30;;;24.03;66.25
65659;BME280;60181;53.258;6.932;2023-09-08T20:16:52;101816.41;;;24.03;66.25
65659;BME280;60181;53.258;6.932;2023-09-08T20:21:12;101816.56;;;24.03;66.22
65659;BME280;60181;53.258;6.932;2023-09-08T20:25:32;101816.33;;;24.03;66.37
65659;BME280;60181;53.258;6.932;2023-09-08T20:29:52;101815.81;;;24.02;66.37
65659;BME280;60181;53.258;6.932;2023-09-08T20:34:12;101814.98;;;24.02;66.35
65659;BME280;60181;53.258;6.932;2023-09-08T20:38:32;101814.40;;;24.02;66.29
65659;BME280;60181;53.258;6.932;2023-09-08T20:42:52;101813.65;;;24.02;66.26
65659;BME280;60181;53.258;6.932;2023-09-08T20:47:12;101813.33;;;24.02;66.26
65659;BME280;60181;53.258;6.932;2023-09-08T20:51:32;101812.75;;;24.02;66.27
65659;BME280;60181;53.258;6.932;2023-09-08T20:55:53;101812.58;;;24.02;66.29
65659;BME280;60181;53.258;6.932;2023-09-08T21:00:13;101812.14;;;24.01;66.29
65659;BME280;60181;53.258;6.932;2023-09-08T21:04:32;101811.33;;;24.01;66.35
65659;BME280;60181;53.258;6.932;2023-09-08T21:08:52;101811.16;;;24.01;66.38
65659;BME280;60181;53.258;6.932;2023-09-08T21:13:12;101811.15;;;24.00;66.46
65659;BME280;60181;53.258;6.932;2023-09-08T21:17:32;101809.66;;;24.00;66.44
65659;BME280;60181;53.258;6.932;2023-09-08T21:21:52;101808.42;;;24.00;66.39
65659;BME280;60181;53.258;6.932;2023-09-08T21:26:12;101807.34;;;23.99;66.39
65659;BME280;60181;53.258;6.932;2023-09-08T21:30:32;101806.23;;;23.99;66.34
65659;BME280;60181;53.258;6.932;2023-09-08T21:34:52;101804.24;;;23.99;66.30
65659;BME280;60181;53.258;6.932;2023-09-08T21:39:12;101803.17;;;23.98;66.34
65659;BME280;60181;53.258;6.932;2023-09-08T21:43:32;101803.23;;;23.97;66.25
65659;BME280;60181;53.258;6.932;2023-09-08T21:47:52;101802.75;;;23.94;66.01
65659;BME280;60181;53.258;6.932;2023-09-08T21:52:12;101801.37;;;23.92;65.72
65659;BME280;60181;53.258;6.932;2023-09-08T21:56:32;101800.05;;;23.89;65.59
65659;BME280;60181;53.258;6.932;2023-09-08T22:00:52;101798.91;;;23.86;65.29
65659;BME280;60181;53.258;6.932;2023-09-08T22:05:12;101799.35;;;23.84;65.27
65659;BME280;60181;53.258;6.932;2023-09-08T22:09:32;101799.97;;;23.81;65.33
65659;BME280;60181;53.258;6.932;2023-09-08T22:13:52;101799.41;;;23.79;65.43
65659;BME280;60181;53.258;6.932;2023-09-08T22:18:12;101799.02;;;23.77;65.31
65659;BME280;60181;53.258;6.932;2023-09-08T22:22:32;101799.30;;;23.74;65.37
65659;BME280;60181;53.258;6.932;2023-09-08T22:26:52;101799.31;;;23.72;65.43
65659;BME280;60181;53.258;6.932;2023-09-08T22:31:12;101799.67;;;23.70;65.38
65659;BME280;60181;53.258;6.932;2023-09-08T22:35:32;101799.35;;;23.68;65.33
65659;BME280;60181;53.258;6.932;2023-09-08T22:39:52;101798.28;;;23.67;65.27
65659;BME280;60181;53.258;6.932;2023-09-08T22:44:12;101797.30;;;23.65;65.34
65659;BME280;60181;53.258;6.932;2023-09-08T22:48:32;101796.83;;;23.63;65.31